• Join FlightAware (Why Join?)
  • Login
  • US Flag 
10:16PM EST


 

Airport Tracker/Info


-or-


 

Live Flight TrackerFlight Track Log ✈ UAL4305 ✈ 05-Apr-2013 ✈ KCRP - KIAH

Flight Track Log - Related Links

Times and Time Zones

All times are in EDT time to prevent confusion due to time zone crossing. See the UAL4305 flight status page for this flight to view local times or setup timezone preferences in your user account.

Time Position Orientation Groundspeed Altitude Reporting Facility
EDT Latitude Longitude Course Direction KTS MPH feet Rate Location/Type
08:31PM 27.7606 -97.4972 41° Northeast 149 171 700  Level Houston Center
08:33PM 27.7147 -97.4444 134° Southeast 221 254 3,500 2,580 Climbing Houston Center
08:33PM 27.7208 -97.4039 80° East 272 313 5,200 3,120 Climbing Houston Center
08:34PM 27.7597 -97.3933 14° North 260 299 6,700 2,760 Climbing Houston Center
08:34PM 27.7958 -97.3783 20° North 277 319 8,100 2,460 Climbing Houston Center
08:35PM 27.9433 -97.3953 35° Northeast  Level FlightAware Approximate
08:35PM 27.8728 -97.3503 18° North 287 330 10,600  Level Houston Center
08:36PM 27.9924 -97.3561 35° Northeast  Level FlightAware Approximate
08:36PM 27.9614 -97.3175 18° North 327 376 11,200  Level Houston Center
08:37PM 28.0380 -97.3120 41° Northeast  Level FlightAware Approximate
08:37PM 28.0592 -97.2808 18° North 360 414 13,100  Level Houston Center
08:38PM 28.1450 -97.2219 31° Northeast 359 413 15,100 1,860 Climbing Houston Center
08:39PM 28.2478 -97.1475 33° Northeast 364 419 17,000 900 Climbing Houston Center
08:40PM 28.3394 -97.0792 33° Northeast 393 452 17,000  Level Houston Center
08:41PM 28.4356 -97.0058 34° Northeast 414 476 17,000  Level Houston Center
08:42PM 28.5344 -96.9342 32° Northeast 421 484 17,000  Level Houston Center
08:44PM 28.6311 -96.8603 34° Northeast 420 483 17,000  Level Houston Center
08:45PM 28.7289 -96.7881 33° Northeast 421 484 17,000  Level Houston Center
08:46PM 28.8458 -96.7006 33° Northeast 421 484 17,000  Level Houston Center
08:47PM 28.9403 -96.6283 34° Northeast 412 474 17,000  Level Houston Center
08:48PM 29.0347 -96.5564 34° Northeast 411 473 17,000  Level Houston Center
08:49PM 29.1286 -96.4844 34° Northeast 411 473 17,000 -240 Level Houston Center
08:50PM 29.2228 -96.4133 33° Northeast 409 471 16,600 -960 Descending Houston Center
08:51PM 29.3158 -96.3431 33° Northeast 405 466 15,100 -1,920 Descending Houston Center
08:51PM 29.3958 -96.2817 34° Northeast 396 456 13,400 -2,400 Descending Houston Center
08:52PM 29.4250 -96.2597 33° Northeast 398 458 12,700 -2,340 Descending Houston Center
08:52PM 29.4650 -96.2308 32° Northeast 385 443 11,500 -2,160 Descending Houston Center
08:53PM 29.5086 -96.1950 36° Northeast 373 429 10,500 -1,380 Descending Houston Center
08:53PM 29.5414 -96.1672 36° Northeast 326 375 10,100 -540 Descending Houston Center
08:54PM 29.5697 -96.1192 56° Northeast 337 388 10,000 -120 Descending Houston Center
08:54PM 29.5867 -96.0828 62° Northeast 326 375 10,000  Level Houston Center
08:55PM 29.6156 -96.0286 58° Northeast 328 377 10,000 60 Level Houston Center
08:55PM 29.6369 -95.9858 60° Northeast 324 373 10,100 -540 Climbing Houston Center
08:56PM 29.6694 -95.9467 46° Northeast 309 356 9,500 -1,320 Descending Houston Center
08:56PM 29.7033 -95.9278 26° Northeast 291 335 8,800 -1,500 Descending Houston Center
08:57PM 29.7431 -95.9042 27° Northeast 295 339 8,000 -1,320 Descending Houston Center
08:57PM 29.7753 -95.8858 26° Northeast 282 325 7,500 -900 Descending Houston Center
08:58PM 29.8133 -95.8661 24° Northeast 283 326 7,100 -420 Descending Houston Center
08:58PM 29.8411 -95.8494 27° Northeast 259 298 7,100 -120 Level Houston Center
08:59PM 29.8792 -95.8286 25° Northeast 267 307 7,000 -120 Descending Houston Center
08:59PM 29.9133 -95.8097 26° Northeast 273 314 7,000  Level Houston Center
09:00PM 29.9422 -95.7936 26° Northeast 254 292 7,000 -300 Level Houston Center
09:00PM 29.9672 -95.7794 26° Northeast 212 244 6,700 -1,140 Descending Houston Center
09:01PM 29.9914 -95.7417 54° Northeast 215 247 5,900 -1,080 Descending Houston Center
09:01PM 29.9911 -95.7164 91° East 210 242 5,500 -1,020 Descending Houston Center
09:02PM 29.9917 -95.6744 89° East 211 243 4,900 -1,140 Descending Houston Center
09:02PM 29.9931 -95.6436 87° East 219 252 4,400 -1,020 Descending Houston Center
09:03PM 29.9928 -95.6033 90° East 221 254 3,900 -900 Descending Houston Center
09:03PM 29.9928 -95.5714 90° East 221 254 3,500 -780 Descending Houston Center
09:04PM 29.9925 -95.5336 90° East 218 251 3,100 -840 Descending Houston Center
09:04PM 29.9933 -95.5061 88° East 193 222 2,700 -1,020 Descending Houston Center
09:05PM 29.9942 -95.4717 88° East 207 238 2,100 -960 Descending Houston Center